Time;durP1;ratioP1;P1;durP2;ratioP2;P2;SDS_P1;SDS_P2;PMS_P1;PMS_P2;Temp;Humidity;BMP_temperature;BMP_pressure;BME280_temperature;BME280_humidity;BME280_pressure;Samples;Min_cycle;Max_cycle;Signal;HPM_P1;HPM_P2
2021/04/07 00:00:54;;;;;;;1.70;1.15;;;;;;;1.18;71.67;96565.77;1694802;84;21249;-62
2021/04/07 00:03:22;;;;;;;1.77;1.02;;;;;;;1.21;71.27;96543.32;1667366;84;21183;-64
2021/04/07 00:05:51;;;;;;;2.83;1.52;;;;;;;1.22;71.17;96532.17;1674858;84;21247;-64
2021/04/07 00:08:25;;;;;;;1.80;1.30;;;;;;;1.25;70.72;96547.27;1671131;84;21203;-64
2021/04/07 00:10:49;;;;;;;1.42;1.15;;;;;;;1.21;73.01;96567.61;1661288;84;21215;-64
2021/04/07 00:13:18;;;;;;;1.75;1.32;;;;;;;1.18;72.85;96571.69;1696036;83;21584;-61
2021/04/07 00:15:46;;;;;;;0.80;0.80;;;;;;;1.12;73.75;96577.30;1668461;85;21185;-63
2021/04/07 00:18:14;;;;;;;1.80;1.25;;;;;;;1.10;73.94;96558.69;1697902;84;21158;-64
2021/04/07 00:20:42;;;;;;;1.42;0.80;;;;;;;1.13;73.36;96561.00;1663800;85;21231;-64
2021/04/07 00:23:10;;;;;;;1.87;1.15;;;;;;;1.14;72.44;96568.20;1655991;84;21240;-64
2021/04/07 00:25:38;;;;;;;0.78;0.78;;;;;;;1.16;71.34;96555.67;1698888;84;21162;-64
2021/04/07 00:28:07;;;;;;;0.85;0.60;;;;;;;1.18;71.96;96552.98;1697264;84;21214;-63
2021/04/07 00:30:37;;;;;;;0.68;0.55;;;;;;;1.19;69.78;96556.70;1696388;84;21175;-64
2021/04/07 00:33:06;;;;;;;1.07;0.93;;;;;;;1.20;71.04;96557.06;1692843;84;21195;-63
2021/04/07 00:35:35;;;;;;;0.93;0.78;;;;;;;1.21;71.21;96554.83;1666656;85;21245;-64
2021/04/07 00:38:03;;;;;;;1.85;1.35;;;;;;;1.20;72.03;96544.27;1699082;84;21173;-64
2021/04/07 00:40:31;;;;;;;1.90;0.72;;;;;;;1.17;72.09;96544.48;1696397;83;21258;-64
2021/04/07 00:43:02;;;;;;;1.27;1.17;;;;;;;1.13;71.79;96543.59;1662256;83;21210;-64
2021/04/07 00:45:30;;;;;;;3.02;1.17;;;;;;;1.03;73.21;96552.89;1651410;83;21878;-64
2021/04/07 00:47:58;;;;;;;1.52;1.42;;;;;;;1.06;72.75;96545.80;1697508;83;21599;-63
2021/04/07 00:50:30;;;;;;;1.07;0.88;;;;;;;0.98;73.86;96546.84;1675245;83;21155;-64
2021/04/07 00:52:58;;;;;;;1.12;0.90;;;;;;;0.92;74.60;96541.77;1675770;83;21217;-63
2021/04/07 00:55:31;;;;;;;1.87;1.32;;;;;;;0.93;74.24;96536.19;1670080;83;21206;-63
2021/04/07 00:58:01;;;;;;;0.85;0.82;;;;;;;0.93;72.99;96534.91;1695399;84;21190;-62
2021/04/07 01:00:29;;;;;;;1.52;1.02;;;;;;;0.97;73.09;96534.20;1668188;85;21170;-62
2021/04/07 01:03:00;;;;;;;1.37;0.98;;;;;;;0.97;73.12;96543.97;1695208;84;21816;-62
2021/04/07 01:05:29;;;;;;;1.27;1.17;;;;;;;1.02;71.77;96548.70;1669600;84;21171;-61
2021/04/07 01:07:58;;;;;;;1.98;0.98;;;;;;;0.98;71.79;96545.57;1675708;84;21167;-62
2021/04/07 01:10:26;;;;;;;1.82;1.00;;;;;;;1.01;70.82;96547.09;1664309;84;21257;-63
2021/04/07 01:12:55;;;;;;;4.15;1.60;;;;;;;1.04;71.15;96550.69;1694129;83;21140;-64
2021/04/07 01:15:24;;;;;;;1.67;1.17;;;;;;;1.04;71.64;96550.23;1677550;83;21683;-63
2021/04/07 01:17:57;;;;;;;2.05;1.20;;;;;;;1.06;71.98;96554.73;1679446;84;21186;-62
2021/04/07 01:20:26;;;;;;;1.05;0.93;;;;;;;1.05;71.83;96556.16;1700036;83;21161;-60
2021/04/07 01:23:03;;;;;;;1.05;0.72;;;;;;;1.01;71.09;96556.86;1698672;83;21849;-61
2021/04/07 01:25:31;;;;;;;4.70;0.95;;;;;;;1.05;69.92;96552.32;1676277;83;21143;-61
2021/04/07 01:28:00;;;;;;;3.58;1.12;;;;;;;1.00;71.32;96560.34;1677103;84;21202;-63
2021/04/07 01:30:29;;;;;;;1.27;0.80;;;;;;;1.04;70.14;96568.58;1696124;83;21607;-62
2021/04/07 01:32:57;;;;;;;0.88;0.60;;;;;;;1.04;70.29;96573.70;1662193;84;21150;-63
2021/04/07 01:35:38;;;;;;;1.15;0.78;;;;;;;1.07;68.70;96570.89;1628680;86;21214;-62
2021/04/07 01:38:06;;;;;;;0.78;0.70;;;;;;;1.07;69.41;96580.66;1634489;86;21190;-62
2021/04/07 01:40:36;;;;;;;2.55;1.17;;;;;;;1.10;68.45;96589.36;1637746;86;21226;-61
2021/04/07 01:43:06;;;;;;;0.85;0.72;;;;;;;1.09;68.60;96595.40;1659565;85;21198;-62
2021/04/07 01:45:34;;;;;;;1.10;1.00;;;;;;;1.06;69.05;96596.11;1661749;85;21182;-63
2021/04/07 01:48:07;;;;;;;0.85;0.68;;;;;;;1.04;68.20;96589.03;1626931;86;21198;-63
2021/04/07 01:50:55;;;;;;;1.10;0.88;;;;;;;1.04;68.11;96590.31;1625338;86;21711;-64
2021/04/07 01:53:23;;;;;;;1.90;0.72;;;;;;;1.00;68.15;96590.20;1604019;87;21171;-63
2021/04/07 01:55:51;;;;;;;0.70;0.62;;;;;;;1.01;67.73;96591.37;1612875;87;21205;-62
2021/04/07 01:58:21;;;;;;;1.30;1.20;;;;;;;1.06;67.85;96590.99;1614464;87;21187;-63
2021/04/07 02:00:50;;;;;;;3.12;1.12;;;;;;;1.07;67.64;96592.16;1615317;88;21197;-63
2021/04/07 02:03:18;;;;;;;0.85;0.78;;;;;;;1.10;67.34;96586.81;1617795;87;21652;-63
2021/04/07 02:05:46;;;;;;;0.50;0.50;;;;;;;1.15;67.21;96584.72;1612017;87;21199;-63
2021/04/07 02:08:14;;;;;;;0.53;0.53;;;;;;;1.15;67.88;96587.73;1587171;89;21211;-63
2021/04/07 02:10:42;;;;;;;2.42;1.12;;;;;;;1.14;68.00;96581.81;1588414;89;21628;-62
2021/04/07 02:13:11;;;;;;;1.40;0.70;;;;;;;1.20;67.47;96581.81;1586665;89;21259;-64
2021/04/07 02:15:39;;;;;;;0.75;0.53;;;;;;;1.25;67.16;96580.97;1595908;89;21211;-62
2021/04/07 02:18:10;;;;;;;1.30;1.02;;;;;;;1.27;66.94;96579.94;1585345;89;21660;-62
2021/04/07 02:20:38;;;;;;;0.47;0.47;;;;;;;1.29;67.15;96575.50;1588386;89;21220;-61
2021/04/07 02:23:06;;;;;;;1.57;1.10;;;;;;;1.21;67.66;96586.79;1591094;89;21207;-60
2021/04/07 02:25:34;;;;;;;0.95;0.53;;;;;;;1.24;66.96;96585.30;1588009;89;21211;-62
2021/04/07 02:30:45;;;;;;;2.33;1.45;;;;;;;1.22;66.83;96596.09;1602338;86;21287;-63
2021/04/07 02:33:13;;;;;;;0.72;0.57;;;;;;;1.14;68.92;96596.33;1678665;83;21174;-63
2021/04/07 02:35:41;;;;;;;1.40;0.88;;;;;;;1.10;68.65;96598.77;1639212;86;21201;-60
2021/04/07 02:38:10;;;;;;;2.27;0.75;;;;;;;1.05;69.63;96595.78;1688963;83;21187;-62
2021/04/07 02:40:38;;;;;;;1.57;0.75;;;;;;;0.98;70.25;96589.02;1638889;85;21188;-60
2021/04/07 02:43:07;;;;;;;7.53;1.25;;;;;;;0.93;70.25;96582.19;1640231;84;21284;-62
2021/04/07 02:45:36;;;;;;;0.47;0.47;;;;;;;0.84;70.93;96587.53;1638495;85;21206;-62
2021/04/07 02:48:04;;;;;;;0.53;0.42;;;;;;;0.79;70.86;96587.06;1642320;85;21239;-64
2021/04/07 02:50:34;;;;;;;1.90;1.70;;;;;;;0.77;70.13;96577.89;1623907;85;21630;-62
2021/04/07 02:53:02;;;;;;;2.92;1.20;;;;;;;0.73;72.14;96575.22;1629509;85;21149;-64
2021/04/07 02:55:30;;;;;;;3.58;1.82;;;;;;;0.68;72.14;96565.34;1628550;86;21185;-61
2021/04/07 02:57:58;;;;;;;0.68;0.68;;;;;;;0.50;73.54;96554.43;1647904;85;21645;-61
2021/04/07 03:00:27;;;;;;;3.30;1.80;;;;;;;0.56;70.96;96539.91;1639190;84;21180;-62
2021/04/07 03:02:55;;;;;;;1.02;0.68;;;;;;;0.56;70.81;96559.88;1637199;85;21628;-60
2021/04/07 03:05:23;;;;;;;0.62;0.62;;;;;;;0.55;70.41;96574.84;1683458;84;22072;-60
2021/04/07 03:07:51;;;;;;;2.20;1.80;;;;;;;0.52;72.07;96586.58;1692988;83;21200;-60
2021/04/07 03:10:20;;;;;;;1.10;0.72;;;;;;;0.41;73.92;96586.11;1656804;85;21208;-61
2021/04/07 03:12:48;;;;;;;2.33;1.25;;;;;;;0.32;73.92;96590.61;1690518;84;21222;-61
2021/04/07 03:15:16;;;;;;;2.67;1.75;;;;;;;0.25;74.56;96606.49;1693000;84;21207;-61
2021/04/07 03:17:44;;;;;;;2.55;1.40;;;;;;;0.21;74.35;96600.80;1687057;84;21592;-61
2021/04/07 03:20:15;;;;;;;1.50;1.35;;;;;;;0.08;75.12;96593.67;1684444;84;21247;-61
2021/04/07 03:22:43;;;;;;;0.72;0.72;;;;;;;0.10;75.08;96586.73;1659217;85;21187;-60
2021/04/07 03:25:12;;;;;;;2.70;1.22;;;;;;;0.04;74.93;96585.89;1635055;86;21164;-61
2021/04/07 03:27:40;;;;;;;1.95;1.32;;;;;;;0.00;75.19;96579.41;1627098;85;21228;-64
2021/04/07 03:30:20;;;;;;;1.47;1.27;;;;;;;0.10;74.76;96596.13;1626929;85;21280;-62
2021/04/07 03:32:47;;;;;;;1.07;0.98;;;;;;;0.15;73.20;96593.61;1630072;85;21188;-62
2021/04/07 03:35:15;;;;;;;1.05;0.90;;;;;;;0.21;73.71;96592.33;1632208;86;21141;-62
2021/04/07 03:37:43;;;;;;;2.05;0.80;;;;;;;0.26;73.19;96600.02;1655407;85;21560;-62
2021/04/07 03:40:13;;;;;;;1.98;0.98;;;;;;;0.22;74.43;96583.29;1640006;86;21183;-62
2021/04/07 03:42:41;;;;;;;1.70;1.02;;;;;;;0.23;74.54;96600.70;1651448;85;21705;-62
2021/04/07 03:45:11;;;;;;;3.27;1.42;;;;;;;0.19;74.69;96597.56;1639807;85;21646;-63
2021/04/07 03:47:39;;;;;;;1.62;1.37;;;;;;;0.25;74.10;96586.88;1658857;84;21169;-64
2021/04/07 03:50:09;;;;;;;2.10;1.25;;;;;;;0.26;74.02;96584.69;1661760;84;21635;-62
2021/04/07 03:52:38;;;;;;;2.00;1.45;;;;;;;0.22;74.06;96593.96;1653924;84;21184;-63
2021/04/07 03:55:09;;;;;;;2.50;1.05;;;;;;;0.25;73.67;96588.63;1635442;85;21172;-63
2021/04/07 03:57:37;;;;;;;4.33;1.57;;;;;;;0.23;73.97;96598.15;1664903;84;21247;-62
2021/04/07 04:00:07;;;;;;;2.80;2.02;;;;;;;0.23;73.01;96594.32;1672527;84;21183;-64
2021/04/07 04:02:35;;;;;;;1.75;0.98;;;;;;;0.29;72.21;96605.34;1661654;83;21188;-64
2021/04/07 04:05:07;;;;;;;1.62;0.95;;;;;;;0.31;71.73;96597.91;1664340;83;21113;-63
2021/04/07 04:07:34;;;;;;;2.22;1.62;;;;;;;0.38;70.96;96594.00;1677203;83;21213;-65
2021/04/07 04:10:24;;;;;;;1.45;1.02;;;;;;;0.43;70.50;96585.52;1662338;84;21229;-64
2021/04/07 04:12:55;;;;;;;2.08;0.82;;;;;;;0.48;70.54;96591.56;1647427;85;21709;-63
2021/04/07 04:15:24;;;;;;;3.58;1.70;;;;;;;0.50;69.97;96602.95;1649741;84;21191;-64
2021/04/07 04:17:52;;;;;;;0.88;0.68;;;;;;;0.50;69.75;96599.94;1660226;84;21246;-63
2021/04/07 04:20:21;;;;;;;1.70;1.40;;;;;;;0.54;69.07;96598.78;1668277;84;21607;-64
2021/04/07 04:22:49;;;;;;;1.52;1.42;;;;;;;0.59;69.81;96593.31;1659399;84;21617;-63
2021/04/07 04:25:20;;;;;;;2.35;1.55;;;;;;;0.59;69.81;96593.31;1670717;84;21628;-64
2021/04/07 04:27:49;;;;;;;0.82;0.70;;;;;;;0.59;69.50;96604.80;1668972;84;21182;-69
2021/04/07 04:30:21;;;;;;;1.35;0.90;;;;;;;0.62;68.89;96606.70;1669774;84;21591;-63
2021/04/07 04:32:50;;;;;;;1.10;1.02;;;;;;;0.64;67.97;96599.72;1694979;84;21638;-63
2021/04/07 04:35:20;;;;;;;1.95;1.02;;;;;;;0.68;67.79;96609.23;1689077;84;21258;-68
2021/04/07 04:37:48;;;;;;;1.25;1.05;;;;;;;0.71;67.07;96613.66;1684974;84;21178;-63
2021/04/07 04:40:18;;;;;;;1.07;0.98;;;;;;;0.70;67.49;96626.06;1695013;84;21300;-64
2021/04/07 04:42:47;;;;;;;2.20;2.00;;;;;;;0.69;67.40;96633.87;1693233;84;21644;-63
2021/04/07 04:45:17;;;;;;;1.55;1.17;;;;;;;0.70;67.25;96631.17;1691648;84;21175;-64
2021/04/07 04:47:45;;;;;;;2.95;1.85;;;;;;;0.70;67.15;96633.73;1697527;84;21217;-63
2021/04/07 04:50:13;;;;;;;4.00;1.07;;;;;;;0.77;67.33;96635.39;1692761;84;21204;-63
2021/04/07 04:52:41;;;;;;;1.70;1.40;;;;;;;0.79;67.12;96634.33;1692853;84;21270;-64
2021/04/07 04:57:51;;;;;;;4.08;1.20;;;;;;;0.79;66.24;96634.33;1690732;83;21157;-63
2021/04/07 05:00:32;;;;;;;2.87;1.32;;;;;;;0.83;66.14;96637.47;1674500;84;21176;-64
2021/04/07 05:03:00;;;;;;;4.25;1.75;;;;;;;0.90;66.02;96637.35;1669238;84;21606;-63
2021/04/07 05:05:28;;;;;;;1.90;1.25;;;;;;;0.92;65.92;96637.61;1631160;86;21249;-62
2021/04/07 05:07:58;;;;;;;3.55;2.05;;;;;;;0.98;65.70;96640.14;1641435;86;21267;-63
2021/04/07 05:10:26;;;;;;;2.37;1.67;;;;;;;1.01;65.98;96645.52;1633299;86;21185;-63
2021/04/07 05:12:55;;;;;;;2.62;1.85;;;;;;;1.09;65.76;96646.53;1644694;86;21267;-64
2021/04/07 05:15:23;;;;;;;1.67;1.30;;;;;;;1.15;65.76;96649.92;1649262;86;21195;-65
2021/04/07 05:17:51;;;;;;;1.35;1.02;;;;;;;1.22;64.68;96651.53;1653137;85;21258;-67
2021/04/07 05:20:20;;;;;;;2.12;0.85;;;;;;;1.29;64.43;96652.69;1637644;85;21193;-64
2021/04/07 05:22:48;;;;;;;1.05;0.93;;;;;;;1.34;64.00;96668.50;1629415;85;21220;-64
2021/04/07 05:25:16;;;;;;;4.25;1.25;;;;;;;1.38;63.54;96661.77;1651802;85;21187;-63
2021/04/07 05:27:44;;;;;;;1.77;0.60;;;;;;;1.37;63.95;96669.54;1652725;85;21277;-64
2021/04/07 05:30:13;;;;;;;1.42;1.32;;;;;;;1.41;63.50;96663.26;1636903;86;21157;-64
2021/04/07 05:32:41;;;;;;;1.22;1.02;;;;;;;1.48;63.38;96664.90;1645669;85;21623;-63
2021/04/07 05:35:31;;;;;;;0.60;0.60;;;;;;;1.50;63.26;96670.23;1627468;86;21224;-63
2021/04/07 05:37:59;;;;;;;0.30;0.30;;;;;;;1.55;63.49;96678.84;1689590;83;21173;-64
2021/04/07 05:40:27;;;;;;;2.08;1.15;;;;;;;1.57;62.86;96679.05;1684119;83;21179;-64
2021/04/07 05:42:57;;;;;;;2.42;1.20;;;;;;;1.63;63.03;96684.18;1717234;82;21160;-68
2021/04/07 05:45:25;;;;;;;1.32;0.95;;;;;;;1.69;62.95;96678.58;1721738;82;21214;-64
2021/04/07 05:47:53;;;;;;;1.85;1.52;;;;;;;1.78;62.33;96684.27;1719795;82;21163;-63
2021/04/07 05:50:22;;;;;;;1.30;0.82;;;;;;;1.80;62.52;96684.48;1716433;82;21210;-64
2021/04/07 05:52:53;;;;;;;1.27;0.80;;;;;;;1.87;61.86;96694.58;1715678;82;21173;-63
2021/04/07 05:55:21;;;;;;;1.02;0.93;;;;;;;1.90;61.22;96691.80;1716233;82;21163;-64
2021/04/07 05:57:58;;;;;;;1.07;0.98;;;;;;;1.94;60.88;96697.95;1719369;82;21242;-64
2021/04/07 06:00:28;;;;;;;1.85;1.32;;;;;;;1.96;60.82;96702.48;1717382;81;21151;-62
2021/04/07 06:03:01;;;;;;;1.62;1.15;;;;;;;1.98;60.39;96700.63;1720440;82;21237;-62
2021/04/07 06:05:30;;;;;;;1.82;1.72;;;;;;;1.98;60.27;96701.45;1721419;82;21202;-62
2021/04/07 06:07:59;;;;;;;2.77;0.88;;;;;;;1.99;60.90;96702.23;1718597;82;21220;-62
2021/04/07 06:10:30;;;;;;;3.08;1.25;;;;;;;2.04;60.34;96712.47;1718527;82;21150;-62
2021/04/07 06:13:00;;;;;;;3.22;1.70;;;;;;;2.04;60.27;96713.75;1719668;82;21647;-63
2021/04/07 06:15:29;;;;;;;3.40;1.82;;;;;;;2.08;59.84;96716.42;1721282;82;21165;-62
2021/04/07 06:18:18;;;;;;;1.65;0.95;;;;;;;2.11;59.92;96723.85;1701440;82;21606;-62
2021/04/07 06:20:49;;;;;;;1.90;1.20;;;;;;;2.14;59.36;96718.48;1676974;83;21297;-63
2021/04/07 06:23:21;;;;;;;2.05;1.22;;;;;;;2.21;59.30;96714.99;1666987;83;21629;-62
2021/04/07 06:25:49;;;;;;;1.92;1.30;;;;;;;2.28;58.69;96714.84;1684718;83;21600;-62
2021/04/07 06:28:17;;;;;;;2.35;1.45;;;;;;;2.38;59.21;96715.27;1691777;83;21266;-62
2021/04/07 06:30:46;;;;;;;1.50;1.37;;;;;;;2.49;59.23;96723.36;1635841;85;21186;-62
2021/04/07 06:33:26;;;;;;;3.42;1.47;;;;;;;2.56;58.91;96728.36;1691389;83;21176;-62
2021/04/07 06:36:00;;;;;;;2.15;1.25;;;;;;;2.67;58.16;96733.44;1686061;83;21244;-63
2021/04/07 06:38:28;;;;;;;0.85;0.70;;;;;;;2.72;58.06;96735.63;1689957;84;21248;-63
2021/04/07 06:40:58;;;;;;;1.70;1.30;;;;;;;2.85;57.95;96737.52;1639107;84;21597;-62
2021/04/07 06:43:31;;;;;;;3.02;1.55;;;;;;;2.93;58.11;96738.18;1647824;84;21611;-63
2021/04/07 06:46:00;;;;;;;3.83;1.25;;;;;;;3.00;57.31;96740.58;1634408;85;21637;-62
2021/04/07 06:48:30;;;;;;;3.62;1.17;;;;;;;3.07;57.31;96737.41;1666856;83;21315;-63
2021/04/07 06:50:59;;;;;;;1.80;1.47;;;;;;;3.11;56.72;96744.39;1684446;84;21184;-62
2021/04/07 06:53:29;;;;;;;3.80;1.95;;;;;;;3.15;56.58;96741.91;1664344;84;21649;-62
2021/04/07 06:55:58;;;;;;;2.95;1.52;;;;;;;3.21;56.41;96735.80;1674866;84;21165;-62
2021/04/07 06:58:26;;;;;;;1.20;0.68;;;;;;;3.29;55.81;96742.86;1684790;84;21625;-61
2021/04/07 07:00:56;;;;;;;1.22;1.10;;;;;;;3.39;55.08;96738.57;1664701;83;21219;-63
2021/04/07 07:03:24;;;;;;;3.20;1.15;;;;;;;3.50;54.19;96744.11;1647933;84;21594;-62
2021/04/07 07:05:54;;;;;;;1.70;1.00;;;;;;;3.62;54.38;96749.50;1660739;84;21224;-66
2021/04/07 07:08:24;;;;;;;2.20;1.20;;;;;;;3.68;52.44;96750.25;1672811;83;21187;-64
2021/04/07 07:10:53;;;;;;;1.37;0.88;;;;;;;3.71;53.73;96755.94;1688789;83;21623;-63
2021/04/07 07:13:24;;;;;;;0.85;0.55;;;;;;;3.78;53.34;96746.77;1699943;83;21596;-63
2021/04/07 07:15:53;;;;;;;1.22;0.62;;;;;;;3.86;52.00;96752.54;1671746;84;21251;-64
2021/04/07 07:18:25;;;;;;;2.00;1.20;;;;;;;3.95;50.87;96750.48;1660815;84;21185;-64
2021/04/07 07:20:56;;;;;;;1.15;0.80;;;;;;;4.02;51.58;96749.47;1678853;83;21194;-64
2021/04/07 07:23:32;;;;;;;1.17;1.07;;;;;;;4.11;51.31;96753.36;1688552;83;21640;-64
2021/04/07 07:26:10;;;;;;;0.95;0.80;;;;;;;4.15;49.86;96762.90;1688100;83;21174;-64
2021/04/07 07:28:52;;;;;;;0.88;0.70;;;;;;;4.21;50.88;96762.36;1693325;83;21652;-64
2021/04/07 07:31:29;;;;;;;0.90;0.78;;;;;;;4.27;50.27;96759.27;1682163;83;21252;-66
2021/04/07 07:34:02;;;;;;;2.47;1.27;;;;;;;4.36;51.06;96767.95;1690906;83;21287;-63
2021/04/07 07:36:34;;;;;;;2.92;1.20;;;;;;;4.49;49.87;96773.62;1681318;83;21187;-64
2021/04/07 07:39:05;;;;;;;2.42;1.10;;;;;;;4.63;47.25;96773.25;1690395;83;21147;-64
2021/04/07 07:41:36;;;;;;;0.82;0.55;;;;;;;4.78;48.88;96776.57;1689747;83;21214;-64
2021/04/07 07:44:06;;;;;;;2.22;1.10;;;;;;;4.92;47.92;96784.34;1692054;83;21696;-64
2021/04/07 07:46:36;;;;;;;0.82;0.70;;;;;;;5.00;46.57;96787.52;1687411;83;21172;-63
2021/04/07 07:49:17;;;;;;;2.12;1.27;;;;;;;5.10;47.69;96792.98;1687325;83;21175;-63
2021/04/07 07:51:47;;;;;;;0.53;0.53;;;;;;;5.15;44.85;96797.72;1692607;83;21234;-64
2021/04/07 07:54:21;;;;;;;1.35;0.72;;;;;;;5.29;45.14;96799.89;1690277;83;21206;-63
2021/04/07 07:56:50;;;;;;;0.98;0.62;;;;;;;5.31;45.61;96803.59;1692195;83;21218;-63
2021/04/07 07:59:33;;;;;;;1.10;0.80;;;;;;;5.30;45.72;96791.66;1696030;83;21594;-63
2021/04/07 08:02:05;;;;;;;1.07;0.88;;;;;;;5.33;44.57;96801.70;1658904;84;21193;-62
2021/04/07 08:04:38;;;;;;;2.33;1.05;;;;;;;5.38;43.71;96799.51;1658472;84;21154;-62
2021/04/07 08:07:06;;;;;;;2.55;0.88;;;;;;;5.37;44.79;96797.91;1679201;83;21617;-62
2021/04/07 08:09:35;;;;;;;1.45;1.20;;;;;;;5.31;44.09;96806.98;1682183;83;21161;-62
2021/04/07 08:12:25;;;;;;;0.60;0.60;;;;;;;5.28;44.63;96798.72;1678809;84;21158;-61
2021/04/07 08:14:54;;;;;;;1.25;0.90;;;;;;;5.29;42.65;96795.20;1693408;83;21213;-64
2021/04/07 08:17:22;;;;;;;3.60;0.88;;;;;;;5.31;41.58;96789.43;1673987;84;21151;-63
2021/04/07 08:19:51;;;;;;;3.77;1.20;;;;;;;5.33;41.58;96803.78;1676225;83;21241;-63
2021/04/07 08:22:20;;;;;;;2.65;1.20;;;;;;;5.23;41.03;96779.83;1680141;83;21169;-63
2021/04/07 08:24:51;;;;;;;0.50;0.50;;;;;;;5.39;41.51;96795.98;1689757;83;21166;-63
2021/04/07 08:27:21;;;;;;;1.17;0.95;;;;;;;5.43;41.64;96798.16;1691658;83;21227;-63
2021/04/07 08:29:51;;;;;;;2.98;0.70;;;;;;;5.43;40.91;96793.00;1657562;84;21650;-63
2021/04/07 08:32:23;;;;;;;3.27;0.90;;;;;;;5.44;42.35;96806.22;1665861;83;21599;-62
2021/04/07 08:35:12;;;;;;;1.27;0.65;;;;;;;5.48;41.15;96808.86;1678536;83;21160;-67
2021/04/07 08:37:40;;;;;;;0.80;0.72;;;;;;;5.55;42.65;96807.34;1663012;85;21182;-63
2021/04/07 08:40:15;;;;;;;3.85;1.32;;;;;;;5.51;41.82;96812.91;1628657;86;21171;-62
2021/04/07 08:42:44;;;;;;;3.70;0.80;;;;;;;5.46;42.83;96803.02;1649456;85;21202;-63
2021/04/07 08:45:14;;;;;;;0.78;0.53;;;;;;;5.55;41.85;96814.25;1612795;86;21640;-63
2021/04/07 08:48:02;;;;;;;1.27;0.98;;;;;;;5.64;41.30;96818.07;1624640;86;21211;-63
2021/04/07 08:50:30;;;;;;;1.37;0.90;;;;;;;5.70;41.76;96816.24;1616907;87;21236;-64
2021/04/07 08:52:59;;;;;;;2.42;0.75;;;;;;;5.77;38.89;96819.53;1643266;86;21238;-64
2021/04/07 08:55:28;;;;;;;4.25;0.65;;;;;;;5.81;38.26;96824.73;1677455;84;21191;-62
2021/04/07 08:58:05;;;;;;;1.07;0.62;;;;;;;5.85;37.29;96819.17;1688070;84;21223;-62
2021/04/07 09:00:37;;;;;;;0.70;0.70;;;;;;;5.87;37.53;96817.31;1680373;84;21206;-62
2021/04/07 09:03:14;;;;;;;1.12;0.65;;;;;;;5.98;37.21;96818.41;1671352;83;21187;-62
2021/04/07 09:05:47;;;;;;;1.25;0.90;;;;;;;6.07;35.87;96817.54;1650696;84;21243;-62
2021/04/07 09:08:21;;;;;;;0.90;0.50;;;;;;;6.26;35.75;96819.71;1674768;84;21639;-63
2021/04/07 09:10:58;;;;;;;0.40;0.33;;;;;;;6.53;37.29;96823.09;1679579;84;21195;-64
2021/04/07 09:13:35;;;;;;;1.65;0.90;;;;;;;6.68;35.97;96822.11;1674804;85;21195;-65
2021/04/07 09:19:27;;;;;;;2.70;0.62;;;;;;;7.00;34.42;96824.97;1695490;83;21174;-64
2021/04/07 09:22:08;;;;;;;1.60;0.50;;;;;;;7.40;35.93;96831.42;1686068;84;21247;-65
2021/04/07 09:24:44;;;;;;;1.25;0.50;;;;;;;7.79;36.30;96823.62;1687340;83;21612;-66
2021/04/07 09:27:27;;;;;;;0.80;0.60;;;;;;;8.05;35.53;96837.32;1693206;84;21229;-66
2021/04/07 09:30:28;;;;;;;0.72;0.68;;;;;;;8.34;31.71;96837.48;1690579;83;21257;-66
2021/04/07 09:32:57;;;;;;;1.10;0.75;;;;;;;8.76;35.87;96834.38;1642319;85;21732;-65
2021/04/07 09:35:26;;;;;;;1.25;0.50;;;;;;;9.15;34.72;96826.01;1641666;85;21633;-66
2021/04/07 09:37:54;;;;;;;1.27;0.80;;;;;;;9.46;31.71;96841.23;1681979;83;21258;-66
2021/04/07 09:40:23;;;;;;;1.40;0.80;;;;;;;9.84;32.22;96833.27;1641279;85;21212;-66
2021/04/07 09:42:53;;;;;;;1.87;1.00;;;;;;;10.18;31.42;96838.23;1656827;84;21629;-66
2021/04/07 09:45:26;;;;;;;1.50;0.95;;;;;;;10.36;34.28;96833.61;1693442;83;21295;-66
2021/04/07 09:47:56;;;;;;;2.42;0.95;;;;;;;10.22;30.05;96831.24;1695181;83;21147;-66
2021/04/07 09:50:29;;;;;;;1.25;0.55;;;;;;;10.44;33.87;96840.06;1697371;83;21233;-66
2021/04/07 09:52:58;;;;;;;1.32;0.65;;;;;;;10.75;30.77;96848.67;1695808;83;21170;-66
2021/04/07 09:55:26;;;;;;;2.65;0.70;;;;;;;11.05;32.11;96843.64;1701560;83;21167;-65
2021/04/07 09:58:04;;;;;;;2.00;0.82;;;;;;;11.41;30.39;96842.05;1696772;83;21250;-67
2021/04/07 10:00:39;;;;;;;1.52;1.10;;;;;;;11.68;26.65;96843.28;1687970;83;21612;-66
2021/04/07 10:03:17;;;;;;;1.77;0.88;;;;;;;12.17;28.60;96843.16;1688252;84;21167;-66
2021/04/07 10:05:45;;;;;;;1.90;1.00;;;;;;;12.46;28.24;96834.52;1648461;84;21223;-66
2021/04/07 10:08:16;;;;;;;1.27;0.93;;;;;;;12.78;24.44;96838.01;1688837;84;21136;-66
2021/04/07 10:10:44;;;;;;;1.65;0.93;;;;;;;13.19;27.90;96847.91;1694766;84;21175;-66
2021/04/07 10:13:12;;;;;;;1.52;0.90;;;;;;;13.43;27.30;96842.28;1634376;85;21208;-64
2021/04/07 10:15:40;;;;;;;1.35;0.70;;;;;;;13.71;27.93;96850.95;1694462;83;21174;-66
2021/04/07 10:18:11;;;;;;;1.95;0.88;;;;;;;14.05;29.32;96842.84;1703407;83;21266;-65
2021/04/07 10:20:40;;;;;;;1.35;1.00;;;;;;;14.14;28.48;96844.31;1702945;83;21603;-66
2021/04/07 10:23:16;;;;;;;1.27;0.90;;;;;;;14.42;29.02;96849.03;1698051;84;21175;-66
2021/04/07 10:25:40;;;;;;;1.47;0.93;;;;;;;14.47;28.79;96849.27;1694171;83;21167;-65
2021/04/07 10:28:20;;;;;;;1.57;0.95;;;;;;;14.52;26.48;96856.00;1689738;84;21163;-65
2021/04/07 10:30:48;;;;;;;2.25;0.95;;;;;;;14.41;20.16;96847.41;1663401;84;21179;-66
2021/04/07 10:36:07;;;;;;;2.33;0.90;;;;;;;14.46;25.75;96856.80;1688275;84;21174;-66
2021/04/07 10:38:36;;;;;;;1.47;0.75;;;;;;;14.81;24.62;96854.93;1668234;83;21203;-65
2021/04/07 10:41:09;;;;;;;1.62;1.07;;;;;;;15.13;25.79;96849.50;1681564;84;21338;-65
2021/04/07 10:43:39;;;;;;;1.52;1.02;;;;;;;15.41;27.43;96854.05;1639979;85;21239;-66
2021/04/07 10:46:08;;;;;;;1.95;1.00;;;;;;;15.45;22.31;96863.11;1683436;84;21304;-66
2021/04/07 10:48:37;;;;;;;1.15;0.82;;;;;;;15.81;22.70;96862.77;1643636;84;21194;-65
2021/04/07 10:51:08;;;;;;;1.02;0.70;;;;;;;15.80;23.33;96866.88;1695042;84;21574;-64
2021/04/07 10:53:42;;;;;;;2.08;0.60;;;;;;;15.28;24.22;96879.39;1669195;83;21156;-64
2021/04/07 10:56:20;;;;;;;1.42;0.88;;;;;;;15.09;22.90;96867.89;1669442;83;21215;-64
2021/04/07 10:58:59;;;;;;;2.02;1.00;;;;;;;15.47;25.86;96868.97;1676219;84;21209;-65
2021/04/07 11:01:37;;;;;;;1.12;0.82;;;;;;;15.32;21.88;96870.15;1644781;85;21158;-64
2021/04/07 11:04:20;;;;;;;1.00;0.75;;;;;;;15.21;22.19;96870.23;1640488;86;21219;-64
2021/04/07 11:06:58;;;;;;;3.17;1.00;;;;;;;15.21;22.81;96871.55;1674067;84;21211;-62
2021/04/07 11:09:29;;;;;;;4.37;1.00;;;;;;;14.84;23.62;96883.78;1630078;86;21156;-64
2021/04/07 11:11:59;;;;;;;2.08;1.22;;;;;;;14.54;24.25;96887.98;1681882;84;21185;-64
2021/04/07 11:14:27;;;;;;;0.82;0.80;;;;;;;14.69;23.05;96882.62;1682313;84;21233;-65
2021/04/07 11:16:58;;;;;;;1.25;0.70;;;;;;;14.96;24.90;96890.06;1673722;84;21206;-65
2021/04/07 11:19:39;;;;;;;1.27;1.05;;;;;;;15.12;20.80;96880.06;1626991;86;21191;-64
2021/04/07 11:22:10;;;;;;;0.93;0.85;;;;;;;15.60;21.48;96882.08;1628019;85;21664;-65
2021/04/07 11:24:38;;;;;;;1.05;0.60;;;;;;;16.27;22.17;96887.59;1685907;84;21218;-65
2021/04/07 11:27:10;;;;;;;2.37;0.68;;;;;;;16.68;23.61;96891.77;1641629;85;21157;-65
2021/04/07 11:29:39;;;;;;;1.70;0.70;;;;;;;16.83;19.67;96894.44;1649627;85;21626;-64
2021/04/07 11:32:09;;;;;;;2.62;1.20;;;;;;;16.56;20.96;96887.64;1631693;84;21689;-65
2021/04/07 11:37:22;;;;;;;1.60;1.02;;;;;;;15.84;22.12;96896.88;1657299;83;21541;-64
2021/04/07 11:40:01;;;;;;;1.32;0.82;;;;;;;15.66;22.09;96902.23;1657536;83;21165;-65
2021/04/07 11:44:58;;;;;;;1.35;0.70;;;;;;;16.03;18.83;96906.05;1657205;84;21585;-64
2021/04/07 11:47:26;;;;;;;1.30;0.82;;;;;;;15.68;18.05;96911.70;1660171;84;21283;-65
2021/04/07 11:49:54;;;;;;;1.00;0.90;;;;;;;15.05;19.53;96905.89;1666880;84;21575;-64
2021/04/07 11:52:22;;;;;;;1.80;1.20;;;;;;;14.24;18.28;96902.21;1681535;84;21762;-65
2021/04/07 11:54:52;;;;;;;2.95;1.10;;;;;;;13.75;20.35;96913.51;1680432;84;21157;-64
2021/04/07 11:57:20;;;;;;;3.85;1.10;;;;;;;12.26;18.85;96924.06;1672037;84;21186;-65
2021/04/07 11:59:48;;;;;;;1.35;0.80;;;;;;;12.25;22.09;96924.26;1667980;84;21205;-70
2021/04/07 12:02:18;;;;;;;0.93;0.82;;;;;;;12.26;21.66;96927.16;1661089;84;21134;-66
2021/04/07 12:04:47;;;;;;;1.50;0.80;;;;;;;12.90;21.84;96915.20;1674106;84;21270;-64
2021/04/07 12:07:15;;;;;;;1.00;0.75;;;;;;;13.04;19.90;96904.42;1672263;84;21178;-64
2021/04/07 12:09:47;;;;;;;1.12;0.95;;;;;;;13.10;22.55;96920.68;1677739;84;21251;-65
2021/04/07 12:12:36;;;;;;;1.98;0.68;;;;;;;12.81;22.50;96926.70;1665278;85;21242;-64